ベルリン/テーゲル の空港の天気 - METARとTAF

ベルリン・テーゲル国際空港 ( EDDT / TXL ) - ドイツ ベルリン
飛行場実況気象(Metar)
観測時間01/19 12:20 CET (01/19 11:20 UTC)
風向・風速西 2m/s
視程10km以上
天気現象
少しの雲 雲底高度 460m
気温2℃
湿度75%
気圧1020hPa
METAREDDT 191120Z 27004KT 240V300 9999 FEW015 02/M02 Q1020 NOSIG
過去の天気等 Google飛行場航空写真 Wunderground天気予報

過去48時間のMETAR

飛行場予報(TAF)
発表時間: 1/19 06:00 CET (1/19 05:00 UTC)
予報対象時間: 19日7時 CET ~ 20日7時 CET
風向・風速南西 3m/s
視程10km以上
全天の8割程度の雲 雲底高度 610m
19日13時 CET ~ 19日16時 CET に徐々に
風向・風速東南東 2m/s
TAF EDDT 190500Z 1906/2006 23005KT 9999 BKN020
BECMG 1912/1915 12004KT